Hauptseite
METAR-TAF:

METAR-TAF

Flughäfen :

Indianapolis, Indiana, Vereinigte Staaten

Indianapolis International Airport

Breite: 39-43-30N, Länge: 086-16-55W, Höhe: 243 m

Beobachtung

Neuester Wetterbericht von vor 19 Minuten, um 13:54 UTC
Wind 5 kt aus Südost
Temperatur 14°C
Luftfeuchtigkeit 82%
Luftdruck 1026 hPa
Sichtweite: 16.1 km
Leicht bewölkt in der Höhe von 25000 ft

METAR: KIND 201354Z 14005KT 10SM FEW250 14/11 A3029 RMK AO2 SLP257 T01390111

Zeit: 10:13 (14:13 UTC)

Prognose

Neuester Wetterbericht von vor 2 Stunden und 53 Minuten, um 11:20 UTC
Gültige Prognose vom 20 um 12 UTC bis 21 um 18 UTC
Wind 3 kt aus unterschiedlichen Richtungen
Sichtweite: 10 km
Leicht bewölkt in der Höhe von 25000 ft

TAF: KIND 201120Z 2012/2118 VRB03KT P6SM FEW250

Wetterbeobachtungen und Prognosen von mehr als 4000 Flughäfen (METAR und TAF Bericht).

Die verfügbaren Stationen werden durch gelbe und rote Markierungen auf der Karte dargestellt.

Führen Sie die Maus auf sie, um den Namen der Station zu sehen.

Darauf klicken, um die Beobachtung von Wetterbeobachtungen und Prognosen zu sehen.

Um die Karte zu ändern : klicken Sie auf den grünen Tasten mit einem schwarzen Kreuz Zum Vergrößern, auf den grünen Button mit einem Gedankenstrich zu verkleinern, oder auf die grünen Pfeile für benachbarte Karten.


METAR-TAF: